createdAt,value
2022-12-27T00:00:52.758Z,100.00
2022-12-27T00:03:20.113Z,100.00
2022-12-27T00:05:48.146Z,100.00
2022-12-27T00:08:15.603Z,100.00
2022-12-27T00:10:42.575Z,100.00
2022-12-27T00:13:09.593Z,100.00
2022-12-27T00:15:38.092Z,100.00
2022-12-27T00:18:05.109Z,100.00
2022-12-27T00:20:32.035Z,100.00
2022-12-27T00:23:01.411Z,100.00
2022-12-27T00:25:28.472Z,100.00
2022-12-27T00:27:55.433Z,100.00
2022-12-27T00:30:22.306Z,100.00
2022-12-27T00:32:49.158Z,100.00
2022-12-27T00:35:16.134Z,100.00
2022-12-27T00:37:43.042Z,100.00
2022-12-27T00:40:10.692Z,100.00
2022-12-27T00:42:37.572Z,100.00
2022-12-27T00:45:05.961Z,100.00
2022-12-27T00:47:32.860Z,100.00
2022-12-27T00:49:59.706Z,100.00
2022-12-27T00:52:26.537Z,100.00
2022-12-27T00:54:53.445Z,100.00
2022-12-27T00:57:20.581Z,100.00
2022-12-27T00:59:48.117Z,100.00
2022-12-27T01:02:15.028Z,100.00
2022-12-27T01:04:41.907Z,100.00
2022-12-27T01:07:08.982Z,100.00
2022-12-27T01:09:35.838Z,100.00
2022-12-27T01:12:02.761Z,100.00
2022-12-27T01:14:29.676Z,100.00
2022-12-27T01:16:56.601Z,100.00
2022-12-27T01:19:23.794Z,100.00
2022-12-27T01:21:50.625Z,100.00
2022-12-27T01:24:17.558Z,100.00
2022-12-27T01:26:44.465Z,100.00
2022-12-27T01:29:14.369Z,100.00
2022-12-27T01:31:41.316Z,100.00
2022-12-27T01:34:08.234Z,100.00
2022-12-27T01:36:35.115Z,100.00
2022-12-27T01:39:02.160Z,100.00
2022-12-27T01:42:07.581Z,100.00
2022-12-27T01:44:40.374Z,100.00
2022-12-27T01:47:13.140Z,100.00
2022-12-27T01:49:45.302Z,100.00
2022-12-27T01:52:13.720Z,100.00
2022-12-27T01:54:41.825Z,100.00
2022-12-27T01:57:09.985Z,100.00
2022-12-27T01:59:37.784Z,100.00
2022-12-27T02:02:05.492Z,100.00
2022-12-27T02:04:33.165Z,100.00
2022-12-27T02:07:00.999Z,100.00
2022-12-27T02:09:41.614Z,100.00
2022-12-27T02:12:10.008Z,100.00
2022-12-27T02:14:46.548Z,100.00
2022-12-27T02:17:17.556Z,100.00
2022-12-27T02:20:01.905Z,100.00
2022-12-27T02:23:24.983Z,100.00
2022-12-27T02:26:21.048Z,100.00
2022-12-27T02:29:02.882Z,100.00
2022-12-27T02:31:32.612Z,100.00
2022-12-27T02:34:01.004Z,100.00
2022-12-27T02:36:32.878Z,100.00
2022-12-27T02:39:02.506Z,100.00
2022-12-27T02:41:52.421Z,100.00
2022-12-27T02:44:38.717Z,100.00
2022-12-27T02:47:41.645Z,100.00
2022-12-27T02:50:29.931Z,100.00
2022-12-27T02:53:08.883Z,100.00
2022-12-27T02:56:09.563Z,100.00
2022-12-27T02:58:56.771Z,100.00
2022-12-27T03:02:15.659Z,100.00
2022-12-27T03:05:06.978Z,100.00
2022-12-27T03:08:00.288Z,100.00
2022-12-27T03:11:07.595Z,100.00
2022-12-27T03:14:14.498Z,100.00
2022-12-27T03:16:58.140Z,100.00
2022-12-27T03:19:46.247Z,100.00
2022-12-27T03:22:33.314Z,100.00
2022-12-27T03:25:21.419Z,100.00
2022-12-27T03:28:10.807Z,100.00
2022-12-27T03:30:57.711Z,100.00
2022-12-27T05:03:04.444Z,100.00
2022-12-27T05:05:31.653Z,100.00
2022-12-27T05:08:18.409Z,100.00
2022-12-27T05:11:03.865Z,100.00
2022-12-27T05:13:49.205Z,100.00
2022-12-27T05:16:16.132Z,100.00
2022-12-27T05:18:44.166Z,100.00
2022-12-27T05:21:11.188Z,100.00
2022-12-27T05:24:01.727Z,100.00
2022-12-27T06:54:19.475Z,100.00
2022-12-27T06:56:46.306Z,100.00
2022-12-27T06:59:13.595Z,100.00
2022-12-27T07:01:42.039Z,100.00
2022-12-27T07:04:10.028Z,100.00
2022-12-27T07:06:37.983Z,100.00
2022-12-27T07:09:04.925Z,100.00
2022-12-27T07:11:36.736Z,100.00
2022-12-27T07:14:04.416Z,100.00
2022-12-27T07:16:31.853Z,100.00
2022-12-27T07:18:59.645Z,100.00
2022-12-27T07:21:28.882Z,100.00
2022-12-27T07:23:56.539Z,100.00
2022-12-27T07:26:30.508Z,100.00
2022-12-27T07:29:00.155Z,100.00
2022-12-27T07:31:29.979Z,100.00
2022-12-27T07:33:57.929Z,100.00
2022-12-27T07:36:27.916Z,100.00
2022-12-27T07:38:55.230Z,100.00
2022-12-27T07:41:22.198Z,100.00
2022-12-27T07:43:49.363Z,100.00
2022-12-27T07:46:19.691Z,100.00
2022-12-27T07:48:47.712Z,100.00
2022-12-27T07:51:16.380Z,100.00
2022-12-27T07:53:44.383Z,100.00
2022-12-27T07:56:13.705Z,99.48
2022-12-27T07:58:42.804Z,98.35
2022-12-27T08:01:11.440Z,96.67
2022-12-27T08:03:40.320Z,94.53
2022-12-27T08:06:09.157Z,93.54
2022-12-27T08:08:40.756Z,91.12
2022-12-27T08:11:08.364Z,88.57
2022-12-27T08:13:35.981Z,86.73
2022-12-27T08:16:03.389Z,86.20
2022-12-27T08:18:30.431Z,85.66
2022-12-27T08:20:57.407Z,85.75
2022-12-27T08:23:25.838Z,84.40
2022-12-27T08:25:52.868Z,84.32
2022-12-27T08:28:20.416Z,83.46
2022-12-27T08:30:48.458Z,81.91
2022-12-27T08:33:15.732Z,80.44
2022-12-27T08:35:54.871Z,78.31
2022-12-27T08:38:22.659Z,76.02
2022-12-27T08:40:49.543Z,73.08
2022-12-27T08:43:16.414Z,72.12
2022-12-27T08:45:43.687Z,70.01
2022-12-27T08:48:10.678Z,70.55
2022-12-27T08:50:37.689Z,68.48
2022-12-27T08:53:06.470Z,67.86
2022-12-27T08:55:35.071Z,66.05
2022-12-27T08:58:12.193Z,64.74
2022-12-27T09:00:43.064Z,66.88
2022-12-27T09:03:12.006Z,65.54
2022-12-27T09:05:41.912Z,65.84
2022-12-27T09:08:11.666Z,65.33
2022-12-27T09:10:38.691Z,65.44
2022-12-27T09:13:05.676Z,64.97
2022-12-27T09:15:32.660Z,62.59
2022-12-27T09:17:59.782Z,61.29
2022-12-27T09:20:27.489Z,60.54
2022-12-27T09:22:54.399Z,59.10
2022-12-27T09:25:22.694Z,59.35
2022-12-27T09:27:49.794Z,58.31
2022-12-27T09:30:16.740Z,57.43
2022-12-27T09:32:43.595Z,57.36
2022-12-27T09:35:11.274Z,56.16
2022-12-27T09:37:38.349Z,57.76
2022-12-27T09:40:05.942Z,57.39
2022-12-27T09:42:56.676Z,57.36
2022-12-27T09:45:43.040Z,54.94
2022-12-27T09:48:18.208Z,56.86
2022-12-27T09:51:10.901Z,60.15
2022-12-27T09:53:53.364Z,61.09
2022-12-27T09:56:40.815Z,60.56
2022-12-27T09:59:20.775Z,57.04
2022-12-27T10:01:49.217Z,58.65
2022-12-27T10:04:18.086Z,55.90
2022-12-27T10:06:50.767Z,54.39
2022-12-27T10:09:55.084Z,54.29
2022-12-27T10:12:31.602Z,53.53
2022-12-27T10:15:04.611Z,53.14
2022-12-27T10:17:31.441Z,52.07
2022-12-27T10:20:04.850Z,51.42
2022-12-27T10:22:41.281Z,51.44
2022-12-27T10:25:18.653Z,50.45
2022-12-27T10:27:47.293Z,50.15
2022-12-27T10:30:20.507Z,49.40
2022-12-27T10:32:48.436Z,49.34
2022-12-27T10:35:20.298Z,48.35
2022-12-27T10:37:49.256Z,48.80
2022-12-27T10:40:41.597Z,50.66
2022-12-27T10:43:25.571Z,47.64
2022-12-27T10:45:53.372Z,48.50
2022-12-27T10:48:28.890Z,47.23
2022-12-27T10:51:08.977Z,47.34
2022-12-27T10:53:52.496Z,46.89
2022-12-27T10:56:26.944Z,47.49
2022-12-27T10:59:11.977Z,47.47
2022-12-27T11:01:39.767Z,47.29
2022-12-27T11:04:14.481Z,46.40
2022-12-27T11:07:08.703Z,46.39
2022-12-27T11:09:36.499Z,46.30
2022-12-27T11:12:15.476Z,46.90
2022-12-27T11:14:58.187Z,45.89
2022-12-27T11:17:52.254Z,45.66
2022-12-27T11:20:30.861Z,47.64
2022-12-27T11:22:57.827Z,46.26
2022-12-27T11:25:27.278Z,47.00
2022-12-27T11:28:06.561Z,46.04
2022-12-27T11:30:37.551Z,47.36
2022-12-27T11:33:24.551Z,46.10
2022-12-27T11:35:54.425Z,44.96
2022-12-27T11:38:26.036Z,45.21
2022-12-27T11:41:37.958Z,44.80
2022-12-27T11:44:40.161Z,44.39
2022-12-27T11:47:12.516Z,44.83
2022-12-27T11:50:27.235Z,46.27
2022-12-27T11:53:12.815Z,46.29
2022-12-27T11:55:45.476Z,46.99
2022-12-27T11:58:46.268Z,47.81
2022-12-27T12:01:38.022Z,48.23
2022-12-27T12:04:32.118Z,48.98
2022-12-27T12:07:29.961Z,49.76
2022-12-27T12:10:30.400Z,50.59
2022-12-27T12:13:18.949Z,51.61
2022-12-27T12:16:01.156Z,51.48
2022-12-27T12:18:39.947Z,53.68
2022-12-27T12:21:37.012Z,53.53
2022-12-27T12:24:22.031Z,54.20
2022-12-27T12:27:19.050Z,55.01
2022-12-27T12:30:04.609Z,55.70
2022-12-27T12:32:43.710Z,57.17
2022-12-27T12:35:38.148Z,58.05
2022-12-27T12:38:20.267Z,59.12
2022-12-27T12:41:05.361Z,59.16
2022-12-27T12:44:01.727Z,58.88
2022-12-27T12:46:44.763Z,58.97
2022-12-27T12:49:40.314Z,59.25
2022-12-27T12:52:10.002Z,59.46
2022-12-27T12:54:51.994Z,59.89
2022-12-27T12:57:37.684Z,59.63
2022-12-27T13:00:32.539Z,60.25
2022-12-27T13:03:36.523Z,63.20
2022-12-27T13:06:20.221Z,61.29
2022-12-27T13:09:05.856Z,61.63
2022-12-27T13:11:51.506Z,60.88
2022-12-27T13:14:43.463Z,61.33
2022-12-27T13:17:22.052Z,61.60
2022-12-27T13:20:08.242Z,61.23
2022-12-27T13:22:54.056Z,61.42
2022-12-27T13:25:37.756Z,61.74
2022-12-27T13:28:31.428Z,62.38
2022-12-27T13:31:04.143Z,62.80
2022-12-27T13:33:43.540Z,62.95
2022-12-27T13:36:24.391Z,63.19
2022-12-27T13:39:08.631Z,63.57
2022-12-27T13:41:47.533Z,63.69
2022-12-27T13:44:43.654Z,64.12
2022-12-27T13:47:42.403Z,64.74
2022-12-27T13:50:15.460Z,65.28
2022-12-27T13:53:12.287Z,65.14
2022-12-27T13:55:51.221Z,65.49
2022-12-27T13:58:21.031Z,65.92
2022-12-27T14:01:09.770Z,66.45
2022-12-27T14:03:55.042Z,67.30
2022-12-27T14:06:59.459Z,67.70
2022-12-27T14:09:44.629Z,68.25
2022-12-27T14:12:45.479Z,68.87
2022-12-27T14:15:16.924Z,69.00
2022-12-27T14:18:07.076Z,69.88
2022-12-27T14:20:59.252Z,70.52
2022-12-27T14:23:31.842Z,70.91
2022-12-27T14:26:23.425Z,71.18
2022-12-27T14:29:05.325Z,72.00
2022-12-27T14:32:09.453Z,72.42
2022-12-27T14:35:04.036Z,73.07
2022-12-27T14:37:40.115Z,74.05
2022-12-27T14:40:38.172Z,74.18
2022-12-27T14:43:10.777Z,75.17
2022-12-27T14:45:53.823Z,76.10
2022-12-27T14:48:48.964Z,76.73
2022-12-27T14:51:59.382Z,77.42
2022-12-27T14:54:42.167Z,78.16
2022-12-27T14:57:20.934Z,78.74
2022-12-27T14:59:50.415Z,79.24
2022-12-27T15:02:23.209Z,79.72
2022-12-27T15:05:26.105Z,80.08
2022-12-27T15:08:20.108Z,81.03
2022-12-27T15:11:08.512Z,82.19
2022-12-27T15:13:53.847Z,82.79
2022-12-27T15:17:01.107Z,83.12
2022-12-27T15:19:40.053Z,83.74
2022-12-27T15:22:45.548Z,83.59
2022-12-27T15:25:29.641Z,83.83
2022-12-27T15:28:19.932Z,84.23
2022-12-27T15:31:09.999Z,83.75
2022-12-27T15:33:48.932Z,83.09
2022-12-27T15:36:18.740Z,82.85
2022-12-27T15:38:55.340Z,81.28
2022-12-27T15:41:59.616Z,80.90
2022-12-27T15:45:01.820Z,80.89
2022-12-27T15:47:38.319Z,81.08
2022-12-27T15:50:31.230Z,80.83
2022-12-27T15:53:27.483Z,80.95
2022-12-27T15:56:20.522Z,80.96
2022-12-27T15:59:25.990Z,80.73
2022-12-27T16:02:27.494Z,80.58
2022-12-27T16:04:56.968Z,80.15
2022-12-27T16:07:42.200Z,80.15
2022-12-27T16:10:31.148Z,80.19
2022-12-27T16:13:13.213Z,80.28
2022-12-27T16:15:48.095Z,79.94
2022-12-27T16:18:18.091Z,79.91
2022-12-27T16:20:57.099Z,78.98
2022-12-27T16:23:31.623Z,79.26
2022-12-27T16:26:16.788Z,78.78
2022-12-27T16:28:57.401Z,78.63
2022-12-27T16:31:30.081Z,78.44
2022-12-27T16:33:59.323Z,78.65
2022-12-27T16:36:30.219Z,78.55
2022-12-27T16:39:00.243Z,78.66
2022-12-27T16:41:54.540Z,78.47
2022-12-27T16:44:24.604Z,78.60
2022-12-27T16:47:25.494Z,78.92
2022-12-27T16:50:07.537Z,78.79
2022-12-27T16:52:34.362Z,78.32
2022-12-27T16:55:26.693Z,78.36
2022-12-27T16:58:13.645Z,78.47
2022-12-27T17:00:46.353Z,77.61
2022-12-27T17:03:21.121Z,77.39
2022-12-27T17:06:21.586Z,77.04
2022-12-27T17:08:37.087Z,76.29
2022-12-27T17:11:24.002Z,75.93
2022-12-27T17:13:57.164Z,76.05
2022-12-27T17:16:29.601Z,75.63
2022-12-27T17:19:08.005Z,75.89
2022-12-27T17:21:38.006Z,75.70
2022-12-27T17:24:20.263Z,75.85
2022-12-27T17:27:11.381Z,75.77
2022-12-27T17:29:44.377Z,75.72
2022-12-27T17:32:38.236Z,75.39
2022-12-27T17:35:28.745Z,75.57
2022-12-27T17:38:11.564Z,75.59
2022-12-27T17:40:50.331Z,75.46
2022-12-27T17:44:07.192Z,75.25
2022-12-27T17:47:01.942Z,74.68
2022-12-27T17:49:32.436Z,74.60
2022-12-27T17:52:20.448Z,74.69
2022-12-27T17:55:06.638Z,74.34
2022-12-27T17:57:52.353Z,74.41
2022-12-27T18:00:25.439Z,74.11
2022-12-27T18:02:55.328Z,73.70
2022-12-27T18:05:30.535Z,73.72
2022-12-27T18:08:30.837Z,73.14
2022-12-27T18:11:00.080Z,73.47
2022-12-27T18:13:30.923Z,73.12
2022-12-27T18:15:58.924Z,72.91
2022-12-27T18:18:32.193Z,72.54
2022-12-27T18:21:01.882Z,72.42
2022-12-27T18:23:28.901Z,71.48
2022-12-27T18:26:02.843Z,71.18
2022-12-27T18:28:34.493Z,70.62
2022-12-27T18:31:17.172Z,70.45
2022-12-27T18:34:08.575Z,69.78
2022-12-27T18:36:51.308Z,69.38
2022-12-27T18:39:27.873Z,69.28
2022-12-27T18:41:55.900Z,68.39
2022-12-27T18:44:30.518Z,68.32
2022-12-27T18:47:02.560Z,68.42
2022-12-27T18:49:38.560Z,68.44
2022-12-27T18:52:22.249Z,67.87
2022-12-27T18:54:49.362Z,68.09
2022-12-27T18:57:31.675Z,67.93
2022-12-27T19:00:15.310Z,68.24
2022-12-27T19:02:42.928Z,68.00
2022-12-27T19:05:19.229Z,68.03
2022-12-27T19:08:11.342Z,68.39
2022-12-27T19:10:46.425Z,68.46
2022-12-27T19:13:28.192Z,68.97
2022-12-27T19:15:56.823Z,69.22
2022-12-27T19:18:27.769Z,69.26
2022-12-27T19:20:57.759Z,69.67
2022-12-27T19:23:34.131Z,69.49
2022-12-27T19:26:05.919Z,69.14
2022-12-27T19:28:34.501Z,69.14
2022-12-27T19:31:06.421Z,69.55
2022-12-27T19:33:36.038Z,69.42
2022-12-27T19:36:07.218Z,69.75
2022-12-27T19:38:34.824Z,70.16
2022-12-27T19:41:04.294Z,70.58
2022-12-27T19:43:38.309Z,70.56
2022-12-27T19:46:05.625Z,70.72
2022-12-27T19:48:32.507Z,70.74
2022-12-27T19:50:59.731Z,71.32
2022-12-27T19:53:36.349Z,71.68
2022-12-27T19:56:03.760Z,72.40
2022-12-27T19:58:31.211Z,72.25
2022-12-27T20:00:58.630Z,72.08
2022-12-27T20:03:26.308Z,71.68
2022-12-27T20:06:13.724Z,71.63
2022-12-27T20:08:45.343Z,72.05
2022-12-27T20:11:14.850Z,72.21
2022-12-27T20:13:41.653Z,72.22
2022-12-27T20:16:12.275Z,72.23
2022-12-27T20:18:40.568Z,72.36
2022-12-27T20:21:07.987Z,72.64
2022-12-27T20:23:35.095Z,73.15
2022-12-27T20:26:03.162Z,73.35
2022-12-27T20:28:30.177Z,73.49
2022-12-27T20:30:57.579Z,73.45
2022-12-27T20:33:26.846Z,73.37
2022-12-27T20:35:59.582Z,73.46
2022-12-27T20:38:26.636Z,73.44
2022-12-27T20:40:53.555Z,73.84
2022-12-27T20:43:20.605Z,74.03
2022-12-27T20:45:48.340Z,74.26
2022-12-27T20:48:15.254Z,74.49
2022-12-27T20:50:42.196Z,74.77
2022-12-27T20:53:09.111Z,74.85
2022-12-27T20:55:36.298Z,74.55
2022-12-27T20:58:03.435Z,76.12
2022-12-27T21:00:30.364Z,77.07
2022-12-27T21:02:57.847Z,76.50
2022-12-27T21:05:24.758Z,76.83
2022-12-27T21:07:51.811Z,77.21
2022-12-27T21:10:18.798Z,78.07
2022-12-27T21:12:45.719Z,77.86
2022-12-27T21:15:12.616Z,78.41
2022-12-27T21:17:39.522Z,78.89
2022-12-27T21:20:11.115Z,79.49
2022-12-27T21:22:38.280Z,79.23
2022-12-27T21:25:05.596Z,79.54
2022-12-27T21:27:32.418Z,79.82
2022-12-27T21:29:59.289Z,80.08
2022-12-27T21:32:26.192Z,81.29
2022-12-27T21:34:53.123Z,84.63
2022-12-27T21:37:20.699Z,85.42
2022-12-27T21:39:47.674Z,86.91
2022-12-27T21:42:14.700Z,87.65
2022-12-27T21:44:41.560Z,88.79
2022-12-27T21:47:08.445Z,90.97
2022-12-27T21:49:35.346Z,92.37
2022-12-27T21:52:02.200Z,93.63
2022-12-27T21:54:29.103Z,95.46
2022-12-27T21:56:55.963Z,96.03
2022-12-27T21:59:22.878Z,97.23
2022-12-27T22:01:52.405Z,97.92
2022-12-27T22:04:21.806Z,98.04
2022-12-27T22:06:49.443Z,97.69
2022-12-27T22:09:16.399Z,97.40
2022-12-27T22:11:43.320Z,98.01
2022-12-27T22:14:10.639Z,97.90
2022-12-27T22:16:39.818Z,97.78
2022-12-27T22:19:11.475Z,97.56
2022-12-27T22:21:39.657Z,97.38
2022-12-27T22:24:07.235Z,96.88
2022-12-27T22:26:39.957Z,96.71
2022-12-27T22:29:08.183Z,96.95
2022-12-27T22:31:38.274Z,96.66
2022-12-27T22:34:06.182Z,96.78
2022-12-27T22:36:33.817Z,97.46
2022-12-27T22:39:01.719Z,97.04
2022-12-27T22:41:31.099Z,97.44
2022-12-27T22:43:58.819Z,96.51
2022-12-27T22:46:26.746Z,96.63
2022-12-27T22:49:00.109Z,97.14
2022-12-27T22:51:30.284Z,97.11
2022-12-27T22:53:58.453Z,97.24
2022-12-27T22:56:30.830Z,97.14
2022-12-27T22:58:58.676Z,97.43
2022-12-27T23:01:33.160Z,97.25
2022-12-27T23:04:02.362Z,97.20
2022-12-27T23:06:30.554Z,98.00
2022-12-27T23:08:58.015Z,97.88
2022-12-27T23:11:28.190Z,98.10
2022-12-27T23:14:06.439Z,98.19
2022-12-27T23:16:42.275Z,98.17
2022-12-27T23:19:09.750Z,98.37
2022-12-27T23:21:37.159Z,98.42
2022-12-27T23:24:04.666Z,98.54
2022-12-27T23:26:31.528Z,98.76
2022-12-27T23:28:58.864Z,99.23
2022-12-27T23:31:26.491Z,99.58
2022-12-27T23:33:53.776Z,99.65
2022-12-27T23:36:21.384Z,99.41
2022-12-27T23:38:48.713Z,99.28
2022-12-27T23:41:18.395Z,99.07
2022-12-27T23:43:54.180Z,98.83
